sensor_id;sensor_type;location;lat;lon;timestamp;temperature;humidity
5554;DHT22;2800;49.528;8.666;2023-03-01T00:01:24;0.40;99.40
5554;DHT22;2800;49.528;8.666;2023-03-01T00:03:51;0.50;99.40
5554;DHT22;2800;49.528;8.666;2023-03-01T00:06:17;0.40;99.40
5554;DHT22;2800;49.528;8.666;2023-03-01T00:08:42;0.40;99.30
5554;DHT22;2800;49.528;8.666;2023-03-01T00:11:20;0.40;99.70
5554;DHT22;2800;49.528;8.666;2023-03-01T00:13:48;0.30;99.90
5554;DHT22;2800;49.528;8.666;2023-03-01T00:16:16;0.30;99.90
5554;DHT22;2800;49.528;8.666;2023-03-01T00:18:42;0.30;99.90
5554;DHT22;2800;49.528;8.666;2023-03-01T00:21:08;0.30;99.90
5554;DHT22;2800;49.528;8.666;2023-03-01T00:23:35;0.30;99.90
5554;DHT22;2800;49.528;8.666;2023-03-01T00:26:01;0.20;99.90
5554;DHT22;2800;49.528;8.666;2023-03-01T00:28:26;0.20;99.90
5554;DHT22;2800;49.528;8.666;2023-03-01T00:30:52;0.20;99.90
5554;DHT22;2800;49.528;8.666;2023-03-01T00:33:18;0.30;99.90
5554;DHT22;2800;49.528;8.666;2023-03-01T00:35:43;0.30;99.90
5554;DHT22;2800;49.528;8.666;2023-03-01T00:38:09;0.30;99.90
5554;DHT22;2800;49.528;8.666;2023-03-01T00:40:35;0.40;99.90
5554;DHT22;2800;49.528;8.666;2023-03-01T00:43:02;0.40;99.90
5554;DHT22;2800;49.528;8.666;2023-03-01T00:45:28;0.40;99.90
5554;DHT22;2800;49.528;8.666;2023-03-01T00:47:54;0.30;99.90
5554;DHT22;2800;49.528;8.666;2023-03-01T00:50:20;0.30;99.90
5554;DHT22;2800;49.528;8.666;2023-03-01T00:52:45;0.30;99.90
5554;DHT22;2800;49.528;8.666;2023-03-01T00:55:11;0.30;99.90
5554;DHT22;2800;49.528;8.666;2023-03-01T00:57:37;0.30;99.90
5554;DHT22;2800;49.528;8.666;2023-03-01T01:00:05;0.40;99.90
5554;DHT22;2800;49.528;8.666;2023-03-01T01:02:33;0.40;99.90
5554;DHT22;2800;49.528;8.666;2023-03-01T01:04:59;0.40;99.90
5554;DHT22;2800;49.528;8.666;2023-03-01T01:07:24;0.40;99.90
5554;DHT22;2800;49.528;8.666;2023-03-01T01:09:50;0.40;99.90
5554;DHT22;2800;49.528;8.666;2023-03-01T01:12:16;0.50;99.90
5554;DHT22;2800;49.528;8.666;2023-03-01T01:14:41;0.50;99.90
5554;DHT22;2800;49.528;8.666;2023-03-01T01:17:07;0.50;99.90
5554;DHT22;2800;49.528;8.666;2023-03-01T01:19:32;0.50;99.90
5554;DHT22;2800;49.528;8.666;2023-03-01T01:21:58;0.50;99.90
5554;DHT22;2800;49.528;8.666;2023-03-01T01:24:23;0.50;99.90
5554;DHT22;2800;49.528;8.666;2023-03-01T01:26:49;0.50;99.90
5554;DHT22;2800;49.528;8.666;2023-03-01T01:29:14;0.50;99.90
5554;DHT22;2800;49.528;8.666;2023-03-01T01:31:42;0.50;99.90
5554;DHT22;2800;49.528;8.666;2023-03-01T01:34:12;0.40;99.90
5554;DHT22;2800;49.528;8.666;2023-03-01T01:36:38;0.40;99.90
5554;DHT22;2800;49.528;8.666;2023-03-01T01:39:04;0.40;99.90
5554;DHT22;2800;49.528;8.666;2023-03-01T01:41:30;0.40;99.90
5554;DHT22;2800;49.528;8.666;2023-03-01T01:44:14;0.40;99.90
5554;DHT22;2800;49.528;8.666;2023-03-01T01:46:58;0.40;99.90
5554;DHT22;2800;49.528;8.666;2023-03-01T01:49:38;0.40;99.90
5554;DHT22;2800;49.528;8.666;2023-03-01T01:52:11;0.40;99.90
5554;DHT22;2800;49.528;8.666;2023-03-01T01:55:10;0.40;99.90
5554;DHT22;2800;49.528;8.666;2023-03-01T01:57:48;0.40;99.90
5554;DHT22;2800;49.528;8.666;2023-03-01T02:00:21;0.40;99.90
5554;DHT22;2800;49.528;8.666;2023-03-01T02:02:49;0.40;99.90
5554;DHT22;2800;49.528;8.666;2023-03-01T02:05:56;0.50;99.90
5554;DHT22;2800;49.528;8.666;2023-03-01T02:08:26;0.50;99.90
5554;DHT22;2800;49.528;8.666;2023-03-01T02:10:52;0.40;99.90
5554;DHT22;2800;49.528;8.666;2023-03-01T02:13:19;0.40;99.90
5554;DHT22;2800;49.528;8.666;2023-03-01T02:15:45;0.40;99.90
5554;DHT22;2800;49.528;8.666;2023-03-01T02:18:12;0.50;99.90
5554;DHT22;2800;49.528;8.666;2023-03-01T02:21:17;0.40;99.90
5554;DHT22;2800;49.528;8.666;2023-03-01T02:23:45;0.40;99.90
5554;DHT22;2800;49.528;8.666;2023-03-01T02:26:25;0.40;99.90
5554;DHT22;2800;49.528;8.666;2023-03-01T02:28:55;0.40;99.90
5554;DHT22;2800;49.528;8.666;2023-03-01T02:31:21;0.40;99.90
5554;DHT22;2800;49.528;8.666;2023-03-01T02:34:08;0.30;99.90
5554;DHT22;2800;49.528;8.666;2023-03-01T02:36:37;0.30;99.90
5554;DHT22;2800;49.528;8.666;2023-03-01T02:39:06;0.30;99.90
5554;DHT22;2800;49.528;8.666;2023-03-01T02:41:35;0.30;99.90
5554;DHT22;2800;49.528;8.666;2023-03-01T02:44:02;0.60;99.90
5554;DHT22;2800;49.528;8.666;2023-03-01T02:46:28;0.30;99.90
5554;DHT22;2800;49.528;8.666;2023-03-01T02:48:57;0.30;99.90
5554;DHT22;2800;49.528;8.666;2023-03-01T02:56:34;0.30;99.90
5554;DHT22;2800;49.528;8.666;2023-03-01T02:59:00;0.30;99.90
5554;DHT22;2800;49.528;8.666;2023-03-01T03:01:27;0.30;99.90
5554;DHT22;2800;49.528;8.666;2023-03-01T03:04:11;0.30;99.90
5554;DHT22;2800;49.528;8.666;2023-03-01T03:06:37;0.30;99.90
5554;DHT22;2800;49.528;8.666;2023-03-01T03:09:03;0.30;99.90
5554;DHT22;2800;49.528;8.666;2023-03-01T03:11:29;0.30;99.90
5554;DHT22;2800;49.528;8.666;2023-03-01T03:13:56;0.30;99.90
5554;DHT22;2800;49.528;8.666;2023-03-01T03:16:22;0.20;99.90
5554;DHT22;2800;49.528;8.666;2023-03-01T03:18:48;0.10;99.90
5554;DHT22;2800;49.528;8.666;2023-03-01T03:21:14;0.10;99.90
5554;DHT22;2800;49.528;8.666;2023-03-01T03:23:40;0.10;99.90
5554;DHT22;2800;49.528;8.666;2023-03-01T03:26:06;0.10;99.90
5554;DHT22;2800;49.528;8.666;2023-03-01T03:28:35;0.10;99.90
5554;DHT22;2800;49.528;8.666;2023-03-01T03:31:01;0.10;99.90
5554;DHT22;2800;49.528;8.666;2023-03-01T03:33:29;0.10;99.90
5554;DHT22;2800;49.528;8.666;2023-03-01T03:35:55;0.10;99.90
5554;DHT22;2800;49.528;8.666;2023-03-01T03:38:20;0.20;99.90
5554;DHT22;2800;49.528;8.666;2023-03-01T03:41:04;0.20;99.90
5554;DHT22;2800;49.528;8.666;2023-03-01T03:43:32;0.20;99.90
5554;DHT22;2800;49.528;8.666;2023-03-01T03:45:58;0.20;99.90
5554;DHT22;2800;49.528;8.666;2023-03-01T03:48:24;0.20;99.90
5554;DHT22;2800;49.528;8.666;2023-03-01T03:50:53;0.20;99.90
5554;DHT22;2800;49.528;8.666;2023-03-01T03:53:19;0.20;99.90
5554;DHT22;2800;49.528;8.666;2023-03-01T03:55:45;0.10;99.90
5554;DHT22;2800;49.528;8.666;2023-03-01T03:58:14;0.10;99.90
5554;DHT22;2800;49.528;8.666;2023-03-01T04:00:43;0.10;99.90
5554;DHT22;2800;49.528;8.666;2023-03-01T04:03:10;0.10;99.90
5554;DHT22;2800;49.528;8.666;2023-03-01T04:05:36;0.10;99.90
5554;DHT22;2800;49.528;8.666;2023-03-01T04:08:02;0.10;99.90
5554;DHT22;2800;49.528;8.666;2023-03-01T04:10:30;0.00;99.90
5554;DHT22;2800;49.528;8.666;2023-03-01T04:12:56;0.00;99.90
5554;DHT22;2800;49.528;8.666;2023-03-01T04:15:22;0.00;99.90
5554;DHT22;2800;49.528;8.666;2023-03-01T04:17:51;0.00;99.90
5554;DHT22;2800;49.528;8.666;2023-03-01T04:20:19;-0.10;99.90
5554;DHT22;2800;49.528;8.666;2023-03-01T04:22:56;-0.10;99.90
5554;DHT22;2800;49.528;8.666;2023-03-01T04:25:33;-0.10;99.90
5554;DHT22;2800;49.528;8.666;2023-03-01T04:27:59;-0.10;99.90
5554;DHT22;2800;49.528;8.666;2023-03-01T04:30:24;-0.10;99.90
5554;DHT22;2800;49.528;8.666;2023-03-01T04:32:50;-0.20;99.90
5554;DHT22;2800;49.528;8.666;2023-03-01T04:35:16;-0.10;99.90
5554;DHT22;2800;49.528;8.666;2023-03-01T04:37:41;-0.20;99.90
5554;DHT22;2800;49.528;8.666;2023-03-01T04:40:07;-0.20;99.90
5554;DHT22;2800;49.528;8.666;2023-03-01T04:42:40;-0.20;99.90
5554;DHT22;2800;49.528;8.666;2023-03-01T04:45:06;-0.10;99.90
5554;DHT22;2800;49.528;8.666;2023-03-01T04:47:38;-0.20;99.90
5554;DHT22;2800;49.528;8.666;2023-03-01T04:50:04;-0.30;99.90
5554;DHT22;2800;49.528;8.666;2023-03-01T04:52:30;-0.30;99.90
5554;DHT22;2800;49.528;8.666;2023-03-01T04:54:56;-0.20;99.90
5554;DHT22;2800;49.528;8.666;2023-03-01T04:57:22;-0.20;99.90
5554;DHT22;2800;49.528;8.666;2023-03-01T04:59:47;-0.20;99.90
5554;DHT22;2800;49.528;8.666;2023-03-01T05:02:13;-0.20;99.90
5554;DHT22;2800;49.528;8.666;2023-03-01T05:04:38;-0.30;99.90
5554;DHT22;2800;49.528;8.666;2023-03-01T05:07:04;-0.20;99.90
5554;DHT22;2800;49.528;8.666;2023-03-01T05:09:29;-0.10;99.90
5554;DHT22;2800;49.528;8.666;2023-03-01T05:11:55;-0.20;99.90
5554;DHT22;2800;49.528;8.666;2023-03-01T05:14:20;-0.30;99.90
5554;DHT22;2800;49.528;8.666;2023-03-01T05:16:47;-0.20;99.90
5554;DHT22;2800;49.528;8.666;2023-03-01T05:19:12;-0.30;99.90
5554;DHT22;2800;49.528;8.666;2023-03-01T05:21:41;-0.30;99.90
5554;DHT22;2800;49.528;8.666;2023-03-01T05:24:39;-0.20;99.90
5554;DHT22;2800;49.528;8.666;2023-03-01T05:27:05;-0.10;99.90
5554;DHT22;2800;49.528;8.666;2023-03-01T05:29:32;-0.20;99.90
5554;DHT22;2800;49.528;8.666;2023-03-01T05:32:01;-0.30;99.90
5554;DHT22;2800;49.528;8.666;2023-03-01T05:34:32;-0.20;99.90
5554;DHT22;2800;49.528;8.666;2023-03-01T05:36:59;-0.20;99.90
5554;DHT22;2800;49.528;8.666;2023-03-01T05:39:26;-0.10;99.90
5554;DHT22;2800;49.528;8.666;2023-03-01T05:41:53;-0.10;99.90
5554;DHT22;2800;49.528;8.666;2023-03-01T05:44:19;-0.20;99.90
5554;DHT22;2800;49.528;8.666;2023-03-01T05:46:44;-0.10;99.90
5554;DHT22;2800;49.528;8.666;2023-03-01T05:49:11;-0.10;99.90
5554;DHT22;2800;49.528;8.666;2023-03-01T05:51:38;-0.10;99.90
5554;DHT22;2800;49.528;8.666;2023-03-01T05:54:04;0.00;99.90
5554;DHT22;2800;49.528;8.666;2023-03-01T05:56:35;0.00;99.90
5554;DHT22;2800;49.528;8.666;2023-03-01T05:59:02;0.00;99.90
5554;DHT22;2800;49.528;8.666;2023-03-01T06:01:28;0.00;99.90
5554;DHT22;2800;49.528;8.666;2023-03-01T06:03:55;0.00;99.90
5554;DHT22;2800;49.528;8.666;2023-03-01T06:06:22;0.00;99.90
5554;DHT22;2800;49.528;8.666;2023-03-01T06:08:48;0.00;99.90
5554;DHT22;2800;49.528;8.666;2023-03-01T06:11:14;0.00;99.90
5554;DHT22;2800;49.528;8.666;2023-03-01T06:13:41;0.00;99.90
5554;DHT22;2800;49.528;8.666;2023-03-01T06:16:08;0.10;99.90
5554;DHT22;2800;49.528;8.666;2023-03-01T06:18:34;0.10;99.90
5554;DHT22;2800;49.528;8.666;2023-03-01T06:21:00;0.10;99.90
5554;DHT22;2800;49.528;8.666;2023-03-01T06:23:25;0.10;99.90
5554;DHT22;2800;49.528;8.666;2023-03-01T06:25:51;0.10;99.90
5554;DHT22;2800;49.528;8.666;2023-03-01T06:28:16;0.10;99.90
5554;DHT22;2800;49.528;8.666;2023-03-01T06:30:42;0.10;99.90
5554;DHT22;2800;49.528;8.666;2023-03-01T06:33:08;0.10;99.90
5554;DHT22;2800;49.528;8.666;2023-03-01T06:35:34;0.20;99.90
5554;DHT22;2800;49.528;8.666;2023-03-01T06:38:01;0.30;99.90
5554;DHT22;2800;49.528;8.666;2023-03-01T06:40:28;0.30;99.90
5554;DHT22;2800;49.528;8.666;2023-03-01T06:42:53;0.30;99.90
5554;DHT22;2800;49.528;8.666;2023-03-01T06:45:20;0.30;99.90
5554;DHT22;2800;49.528;8.666;2023-03-01T06:47:46;0.30;99.90
5554;DHT22;2800;49.528;8.666;2023-03-01T06:50:12;0.40;99.90
5554;DHT22;2800;49.528;8.666;2023-03-01T06:52:39;0.50;99.90
5554;DHT22;2800;49.528;8.666;2023-03-01T06:55:05;0.70;99.90
5554;DHT22;2800;49.528;8.666;2023-03-01T06:57:31;1.00;99.90
5554;DHT22;2800;49.528;8.666;2023-03-01T06:59:57;1.30;99.90
5554;DHT22;2800;49.528;8.666;2023-03-01T07:02:22;1.50;99.90
5554;DHT22;2800;49.528;8.666;2023-03-01T07:04:51;1.60;99.90
5554;DHT22;2800;49.528;8.666;2023-03-01T07:07:17;1.60;99.90
5554;DHT22;2800;49.528;8.666;2023-03-01T07:09:44;1.60;99.90
5554;DHT22;2800;49.528;8.666;2023-03-01T07:12:10;1.80;99.90
5554;DHT22;2800;49.528;8.666;2023-03-01T07:14:35;1.90;99.90
5554;DHT22;2800;49.528;8.666;2023-03-01T07:17:01;1.90;99.90
5554;DHT22;2800;49.528;8.666;2023-03-01T07:19:26;2.00;99.90
5554;DHT22;2800;49.528;8.666;2023-03-01T07:21:52;2.10;99.90
5554;DHT22;2800;49.528;8.666;2023-03-01T07:24:17;2.30;99.90
5554;DHT22;2800;49.528;8.666;2023-03-01T07:26:43;2.40;99.90
5554;DHT22;2800;49.528;8.666;2023-03-01T07:29:10;2.60;99.90
5554;DHT22;2800;49.528;8.666;2023-03-01T07:31:36;2.60;99.00
5554;DHT22;2800;49.528;8.666;2023-03-01T07:34:02;2.70;99.10
5554;DHT22;2800;49.528;8.666;2023-03-01T07:36:28;3.00;98.20
5554;DHT22;2800;49.528;8.666;2023-03-01T07:38:53;3.00;97.70
5554;DHT22;2800;49.528;8.666;2023-03-01T07:41:21;3.10;97.70
5554;DHT22;2800;49.528;8.666;2023-03-01T07:43:46;3.20;96.80
5554;DHT22;2800;49.528;8.666;2023-03-01T07:46:12;3.40;96.50
5554;DHT22;2800;49.528;8.666;2023-03-01T07:48:37;3.70;96.30
5554;DHT22;2800;49.528;8.666;2023-03-01T07:51:05;4.00;96.50
5554;DHT22;2800;49.528;8.666;2023-03-01T07:53:31;3.90;94.90
5554;DHT22;2800;49.528;8.666;2023-03-01T07:56:07;4.20;94.50
5554;DHT22;2800;49.528;8.666;2023-03-01T07:58:41;4.20;93.70
5554;DHT22;2800;49.528;8.666;2023-03-01T08:01:09;4.20;93.80
5554;DHT22;2800;49.528;8.666;2023-03-01T08:03:36;4.30;92.80
5554;DHT22;2800;49.528;8.666;2023-03-01T08:06:03;4.30;92.10
5554;DHT22;2800;49.528;8.666;2023-03-01T08:08:29;4.50;91.90
5554;DHT22;2800;49.528;8.666;2023-03-01T08:10:58;4.80;91.60
5554;DHT22;2800;49.528;8.666;2023-03-01T08:13:24;4.90;91.00
5554;DHT22;2800;49.528;8.666;2023-03-01T08:15:50;4.80;90.00
5554;DHT22;2800;49.528;8.666;2023-03-01T08:18:17;4.70;88.90
5554;DHT22;2800;49.528;8.666;2023-03-01T08:20:43;5.00;90.30
5554;DHT22;2800;49.528;8.666;2023-03-01T08:23:08;4.80;87.90
5554;DHT22;2800;49.528;8.666;2023-03-01T08:25:34;5.20;87.50
5554;DHT22;2800;49.528;8.666;2023-03-01T08:28:00;5.40;86.70
5554;DHT22;2800;49.528;8.666;2023-03-01T08:30:25;5.80;87.40
5554;DHT22;2800;49.528;8.666;2023-03-01T08:32:51;6.00;82.90
5554;DHT22;2800;49.528;8.666;2023-03-01T08:35:17;6.10;82.00
5554;DHT22;2800;49.528;8.666;2023-03-01T08:37:43;6.00;78.40
5554;DHT22;2800;49.528;8.666;2023-03-01T08:40:09;6.00;77.00
5554;DHT22;2800;49.528;8.666;2023-03-01T08:42:36;6.20;76.90
5554;DHT22;2800;49.528;8.666;2023-03-01T08:45:03;6.10;75.50
5554;DHT22;2800;49.528;8.666;2023-03-01T08:47:29;6.30;73.70
5554;DHT22;2800;49.528;8.666;2023-03-01T08:49:54;6.70;73.50
5554;DHT22;2800;49.528;8.666;2023-03-01T08:52:20;6.40;69.60
5554;DHT22;2800;49.528;8.666;2023-03-01T08:54:48;6.70;71.80
5554;DHT22;2800;49.528;8.666;2023-03-01T08:57:14;7.20;69.10
5554;DHT22;2800;49.528;8.666;2023-03-01T08:59:39;7.50;67.20
5554;DHT22;2800;49.528;8.666;2023-03-01T09:02:14;7.30;65.90
5554;DHT22;2800;49.528;8.666;2023-03-01T09:04:40;7.00;65.70
5554;DHT22;2800;49.528;8.666;2023-03-01T09:07:06;7.20;65.50
5554;DHT22;2800;49.528;8.666;2023-03-01T09:09:32;7.20;65.30
5554;DHT22;2800;49.528;8.666;2023-03-01T09:11:57;7.40;64.90
5554;DHT22;2800;49.528;8.666;2023-03-01T09:14:23;7.40;64.70
5554;DHT22;2800;49.528;8.666;2023-03-01T09:16:48;7.50;62.10
5554;DHT22;2800;49.528;8.666;2023-03-01T09:19:14;7.60;62.20
5554;DHT22;2800;49.528;8.666;2023-03-01T09:21:40;7.90;63.30
5554;DHT22;2800;49.528;8.666;2023-03-01T09:24:08;8.30;59.80
5554;DHT22;2800;49.528;8.666;2023-03-01T09:26:36;8.00;58.30
5554;DHT22;2800;49.528;8.666;2023-03-01T09:29:02;7.40;57.60
5554;DHT22;2800;49.528;8.666;2023-03-01T09:31:27;7.10;57.20
5554;DHT22;2800;49.528;8.666;2023-03-01T09:33:53;7.30;58.20
5554;DHT22;2800;49.528;8.666;2023-03-01T09:36:21;6.80;56.40
5554;DHT22;2800;49.528;8.666;2023-03-01T09:38:48;7.10;57.60
5554;DHT22;2800;49.528;8.666;2023-03-01T09:46:48;8.60;58.30
5554;DHT22;2800;49.528;8.666;2023-03-01T09:49:24;9.20;57.10
5554;DHT22;2800;49.528;8.666;2023-03-01T09:52:01;8.00;54.00
5554;DHT22;2800;49.528;8.666;2023-03-01T09:54:29;7.70;53.80
5554;DHT22;2800;49.528;8.666;2023-03-01T09:57:14;8.10;54.30
5554;DHT22;2800;49.528;8.666;2023-03-01T10:05:29;9.70;54.40
5554;DHT22;2800;49.528;8.666;2023-03-01T10:10:43;8.90;52.60
5554;DHT22;2800;49.528;8.666;2023-03-01T10:16:21;10.00;50.70
5554;DHT22;2800;49.528;8.666;2023-03-01T10:18:53;10.40;50.40
5554;DHT22;2800;49.528;8.666;2023-03-01T10:21:21;9.70;50.10
5554;DHT22;2800;49.528;8.666;2023-03-01T10:23:50;9.80;51.00
5554;DHT22;2800;49.528;8.666;2023-03-01T10:29:08;10.70;49.20
5554;DHT22;2800;49.528;8.666;2023-03-01T10:31:47;10.50;47.60
5554;DHT22;2800;49.528;8.666;2023-03-01T10:34:19;10.50;48.00
5554;DHT22;2800;49.528;8.666;2023-03-01T10:36:51;10.80;47.20
5554;DHT22;2800;49.528;8.666;2023-03-01T10:39:20;11.00;48.00
5554;DHT22;2800;49.528;8.666;2023-03-01T10:41:59;10.80;46.20
5554;DHT22;2800;49.528;8.666;2023-03-01T10:44:46;11.30;48.30
5554;DHT22;2800;49.528;8.666;2023-03-01T10:47:18;11.10;47.10
5554;DHT22;2800;49.528;8.666;2023-03-01T10:49:56;11.50;47.70
5554;DHT22;2800;49.528;8.666;2023-03-01T10:52:25;11.60;45.60
5554;DHT22;2800;49.528;8.666;2023-03-01T10:55:00;11.30;44.60
5554;DHT22;2800;49.528;8.666;2023-03-01T10:57:36;11.70;45.30
5554;DHT22;2800;49.528;8.666;2023-03-01T11:02:50;11.80;44.20
5554;DHT22;2800;49.528;8.666;2023-03-01T11:05:24;11.80;44.80
5554;DHT22;2800;49.528;8.666;2023-03-01T11:07:55;11.30;43.20
5554;DHT22;2800;49.528;8.666;2023-03-01T11:10:30;11.30;43.00
5554;DHT22;2800;49.528;8.666;2023-03-01T11:13:15;11.30;43.40
5554;DHT22;2800;49.528;8.666;2023-03-01T11:15:42;11.20;42.80
5554;DHT22;2800;49.528;8.666;2023-03-01T11:18:22;11.30;42.90
5554;DHT22;2800;49.528;8.666;2023-03-01T11:20:49;12.00;44.30
5554;DHT22;2800;49.528;8.666;2023-03-01T11:23:16;12.50;44.90
5554;DHT22;2800;49.528;8.666;2023-03-01T11:25:47;12.10;43.10
5554;DHT22;2800;49.528;8.666;2023-03-01T11:28:17;11.70;42.70
5554;DHT22;2800;49.528;8.666;2023-03-01T11:31:05;11.70;42.30
5554;DHT22;2800;49.528;8.666;2023-03-01T11:36:26;12.50;43.30
5554;DHT22;2800;49.528;8.666;2023-03-01T11:38:55;12.70;43.10
5554;DHT22;2800;49.528;8.666;2023-03-01T11:41:28;12.20;42.20
5554;DHT22;2800;49.528;8.666;2023-03-01T11:44:01;12.80;43.40
5554;DHT22;2800;49.528;8.666;2023-03-01T11:49:56;13.60;43.80
5554;DHT22;2800;49.528;8.666;2023-03-01T11:52:44;13.70;42.60
5554;DHT22;2800;49.528;8.666;2023-03-01T11:55:46;13.70;42.90
5554;DHT22;2800;49.528;8.666;2023-03-01T11:58:25;13.60;41.90
5554;DHT22;2800;49.528;8.666;2023-03-01T12:01:25;13.50;42.40
5554;DHT22;2800;49.528;8.666;2023-03-01T12:20:26;14.60;41.60
5554;DHT22;2800;49.528;8.666;2023-03-01T12:42:12;14.80;40.90
5554;DHT22;2800;49.528;8.666;2023-03-01T12:45:21;15.30;41.50
5554;DHT22;2800;49.528;8.666;2023-03-01T12:50:20;16.60;43.80
5554;DHT22;2800;49.528;8.666;2023-03-01T12:52:54;16.60;43.00
5554;DHT22;2800;49.528;8.666;2023-03-01T12:55:37;16.60;41.40
5554;DHT22;2800;49.528;8.666;2023-03-01T13:00:59;16.20;41.30
5554;DHT22;2800;49.528;8.666;2023-03-01T13:03:38;16.70;43.50
5554;DHT22;2800;49.528;8.666;2023-03-01T13:06:19;16.70;42.60
5554;DHT22;2800;49.528;8.666;2023-03-01T13:09:00;16.40;42.40
5554;DHT22;2800;49.528;8.666;2023-03-01T13:11:29;16.10;40.90
5554;DHT22;2800;49.528;8.666;2023-03-01T13:16:45;15.90;39.60
5554;DHT22;2800;49.528;8.666;2023-03-01T13:19:24;16.30;41.10
5554;DHT22;2800;49.528;8.666;2023-03-01T13:21:52;16.90;41.20
5554;DHT22;2800;49.528;8.666;2023-03-01T13:32:29;16.80;41.00
5554;DHT22;2800;49.528;8.666;2023-03-01T13:34:59;17.20;42.70
5554;DHT22;2800;49.528;8.666;2023-03-01T13:37:36;17.30;41.70
5554;DHT22;2800;49.528;8.666;2023-03-01T13:40:56;16.80;40.60
5554;DHT22;2800;49.528;8.666;2023-03-01T13:42:54;15.60;39.30
5554;DHT22;2800;49.528;8.666;2023-03-01T13:45:21;15.50;39.80
5554;DHT22;2800;49.528;8.666;2023-03-01T13:47:52;16.20;40.10
5554;DHT22;2800;49.528;8.666;2023-03-01T13:50:23;16.10;41.10
5554;DHT22;2800;49.528;8.666;2023-03-01T13:52:59;15.40;38.00
5554;DHT22;2800;49.528;8.666;2023-03-01T13:55:37;15.50;39.50
5554;DHT22;2800;49.528;8.666;2023-03-01T13:58:27;15.60;39.60
5554;DHT22;2800;49.528;8.666;2023-03-01T14:01:07;15.20;39.20
5554;DHT22;2800;49.528;8.666;2023-03-01T14:03:41;15.50;40.50
5554;DHT22;2800;49.528;8.666;2023-03-01T14:06:12;15.40;39.90
5554;DHT22;2800;49.528;8.666;2023-03-01T14:08:40;16.10;40.30
5554;DHT22;2800;49.528;8.666;2023-03-01T14:11:29;15.90;40.50
5554;DHT22;2800;49.528;8.666;2023-03-01T14:14:23;16.20;40.10
5554;DHT22;2800;49.528;8.666;2023-03-01T14:19:30;16.20;40.20
5554;DHT22;2800;49.528;8.666;2023-03-01T14:22:10;16.10;39.90
5554;DHT22;2800;49.528;8.666;2023-03-01T14:24:47;16.00;39.50
5554;DHT22;2800;49.528;8.666;2023-03-01T14:27:14;15.90;40.50
5554;DHT22;2800;49.528;8.666;2023-03-01T14:29:40;16.00;40.40
5554;DHT22;2800;49.528;8.666;2023-03-01T14:32:19;15.50;39.60
5554;DHT22;2800;49.528;8.666;2023-03-01T14:34:49;14.90;38.40
5554;DHT22;2800;49.528;8.666;2023-03-01T14:37:33;14.10;37.00
5554;DHT22;2800;49.528;8.666;2023-03-01T14:40:02;14.20;38.00
5554;DHT22;2800;49.528;8.666;2023-03-01T14:42:35;15.40;39.60
5554;DHT22;2800;49.528;8.666;2023-03-01T14:45:02;15.90;39.60
5554;DHT22;2800;49.528;8.666;2023-03-01T14:47:34;16.20;40.20
5554;DHT22;2800;49.528;8.666;2023-03-01T14:52:38;15.20;38.30
5554;DHT22;2800;49.528;8.666;2023-03-01T14:55:09;15.00;37.80
5554;DHT22;2800;49.528;8.666;2023-03-01T14:57:43;15.50;38.60
5554;DHT22;2800;49.528;8.666;2023-03-01T15:00:22;15.30;38.70
5554;DHT22;2800;49.528;8.666;2023-03-01T15:02:49;14.90;38.10
5554;DHT22;2800;49.528;8.666;2023-03-01T15:05:18;14.40;37.60
5554;DHT22;2800;49.528;8.666;2023-03-01T15:07:45;14.00;37.00
5554;DHT22;2800;49.528;8.666;2023-03-01T15:10:35;14.00;37.00
5554;DHT22;2800;49.528;8.666;2023-03-01T15:13:24;14.50;38.60
5554;DHT22;2800;49.528;8.666;2023-03-01T15:15:51;14.80;38.10
5554;DHT22;2800;49.528;8.666;2023-03-01T15:18:21;14.90;38.50
5554;DHT22;2800;49.528;8.666;2023-03-01T15:20:48;15.30;39.10
5554;DHT22;2800;49.528;8.666;2023-03-01T15:23:26;14.60;37.20
5554;DHT22;2800;49.528;8.666;2023-03-01T15:25:53;14.90;39.20
5554;DHT22;2800;49.528;8.666;2023-03-01T15:28:28;14.40;38.30
5554;DHT22;2800;49.528;8.666;2023-03-01T15:30:57;14.60;37.50
5554;DHT22;2800;49.528;8.666;2023-03-01T15:33:30;14.90;38.00
5554;DHT22;2800;49.528;8.666;2023-03-01T15:36:43;14.30;37.10
5554;DHT22;2800;49.528;8.666;2023-03-01T15:38:55;14.60;38.50
5554;DHT22;2800;49.528;8.666;2023-03-01T15:41:37;14.40;37.90
5554;DHT22;2800;49.528;8.666;2023-03-01T15:44:27;14.90;38.30
5554;DHT22;2800;49.528;8.666;2023-03-01T15:46:53;15.20;38.20
5554;DHT22;2800;49.528;8.666;2023-03-01T15:49:35;14.80;37.30
5554;DHT22;2800;49.528;8.666;2023-03-01T15:52:02;14.30;37.60
5554;DHT22;2800;49.528;8.666;2023-03-01T15:54:28;14.90;37.50
5554;DHT22;2800;49.528;8.666;2023-03-01T15:56:54;15.20;37.60
5554;DHT22;2800;49.528;8.666;2023-03-01T15:59:20;14.60;37.10
5554;DHT22;2800;49.528;8.666;2023-03-01T16:01:47;13.90;36.40
5554;DHT22;2800;49.528;8.666;2023-03-01T16:04:15;13.50;36.30
5554;DHT22;2800;49.528;8.666;2023-03-01T16:06:46;12.30;34.70
5554;DHT22;2800;49.528;8.666;2023-03-01T16:09:20;12.10;34.90
5554;DHT22;2800;49.528;8.666;2023-03-01T16:11:46;12.30;35.10
5554;DHT22;2800;49.528;8.666;2023-03-01T16:14:12;12.40;35.60
5554;DHT22;2800;49.528;8.666;2023-03-01T16:16:37;12.60;36.10
5554;DHT22;2800;49.528;8.666;2023-03-01T16:19:03;12.60;35.70
5554;DHT22;2800;49.528;8.666;2023-03-01T16:21:28;12.10;34.30
5554;DHT22;2800;49.528;8.666;2023-03-01T16:23:54;11.60;34.60
5554;DHT22;2800;49.528;8.666;2023-03-01T16:26:19;11.60;34.20
5554;DHT22;2800;49.528;8.666;2023-03-01T16:28:45;11.70;34.90
5554;DHT22;2800;49.528;8.666;2023-03-01T16:31:12;11.70;35.00
5554;DHT22;2800;49.528;8.666;2023-03-01T16:33:41;11.60;34.90
5554;DHT22;2800;49.528;8.666;2023-03-01T16:36:08;11.30;33.90
5554;DHT22;2800;49.528;8.666;2023-03-01T16:38:34;11.00;34.90
5554;DHT22;2800;49.528;8.666;2023-03-01T16:41:00;10.80;34.20
5554;DHT22;2800;49.528;8.666;2023-03-01T16:43:26;10.50;33.90
5554;DHT22;2800;49.528;8.666;2023-03-01T16:45:51;10.30;33.60
5554;DHT22;2800;49.528;8.666;2023-03-01T16:48:17;9.80;33.70
5554;DHT22;2800;49.528;8.666;2023-03-01T16:50:42;9.70;34.20
5554;DHT22;2800;49.528;8.666;2023-03-01T16:53:08;9.70;34.40
5554;DHT22;2800;49.528;8.666;2023-03-01T16:55:34;9.50;34.10
5554;DHT22;2800;49.528;8.666;2023-03-01T16:58:00;9.40;33.80
5554;DHT22;2800;49.528;8.666;2023-03-01T17:00:27;9.10;33.50
5554;DHT22;2800;49.528;8.666;2023-03-01T17:02:53;9.00;33.30
5554;DHT22;2800;49.528;8.666;2023-03-01T17:05:19;8.90;33.30
5554;DHT22;2800;49.528;8.666;2023-03-01T17:07:46;8.70;33.10
5554;DHT22;2800;49.528;8.666;2023-03-01T17:10:11;8.60;33.40
5554;DHT22;2800;49.528;8.666;2023-03-01T17:12:37;8.40;33.90
5554;DHT22;2800;49.528;8.666;2023-03-01T17:15:04;8.30;33.60
5554;DHT22;2800;49.528;8.666;2023-03-01T17:17:30;8.20;33.80
5554;DHT22;2800;49.528;8.666;2023-03-01T17:19:56;8.00;34.20
5554;DHT22;2800;49.528;8.666;2023-03-01T17:22:22;7.90;34.10
5554;DHT22;2800;49.528;8.666;2023-03-01T17:24:47;7.70;33.60
5554;DHT22;2800;49.528;8.666;2023-03-01T17:27:13;7.70;33.80
5554;DHT22;2800;49.528;8.666;2023-03-01T17:29:40;7.50;33.70
5554;DHT22;2800;49.528;8.666;2023-03-01T17:32:06;7.40;33.90
5554;DHT22;2800;49.528;8.666;2023-03-01T17:34:32;7.40;34.30
5554;DHT22;2800;49.528;8.666;2023-03-01T17:36:58;7.30;33.90
5554;DHT22;2800;49.528;8.666;2023-03-01T17:39:24;7.30;34.40
5554;DHT22;2800;49.528;8.666;2023-03-01T17:41:56;7.10;34.10
5554;DHT22;2800;49.528;8.666;2023-03-01T17:44:21;7.00;34.20
5554;DHT22;2800;49.528;8.666;2023-03-01T17:46:47;6.90;34.20
5554;DHT22;2800;49.528;8.666;2023-03-01T17:49:12;6.90;35.30
5554;DHT22;2800;49.528;8.666;2023-03-01T17:51:38;6.80;34.60
5554;DHT22;2800;49.528;8.666;2023-03-01T17:54:04;6.60;35.10
5554;DHT22;2800;49.528;8.666;2023-03-01T17:56:30;6.60;36.20
5554;DHT22;2800;49.528;8.666;2023-03-01T17:58:58;6.30;36.10